Latest Weather Observations for Richmond

IDN60901

Issued at 12:01 am EST Tuesday 7 July 2015 (issued every 10 minutes, with the page automatically refreshed every 10 minutes)

About weather observations | Map of Sydney area stations | Latest observations for Sydney area | Other Formats
Station Details ID: 067105 Name: RICHMOND RAAF Lat: -33.60 Lon: 150.78 Height: 19.0 m
Data from the previous 72 hours. | See also: Recent months at Richmond
Date/Time
EST
Tmp

°C
App
Tmp
°C
Dew
Point
°C
Rel
Hum
%
Delta-T

°C
Wind Press
QNH
hPa
Press
MSL
hPa
Rain
since
9 am
mm
Dir
 
Spd
km/h
Gust
km/h
Spd
kts
Gust
kts
07/12:00am 3.1 1.3 1.2 87 0.7 CALM 0 6 0 3 1017.2 1017.2 0.2
 
Date/Time
EST
Tmp

°C
App
Tmp
°C
Dew
Point
°C
Rel
Hum
%
Delta-T

°C
Wind Press
QNH
hPa
Press
MSL
hPa
Rain
since
9 am
mm
Dir
 
Spd
km/h
Gust
km/h
Spd
kts
Gust
kts
06/11:30pm 3.4 0.5 1.6 88 0.7 ESE 6 7 3 4 1017.1 1017.1 0.2
06/11:00pm 4.8 2.4 2.3 84 1.0 WSW 4 9 2 5 1017.0 1017.0 0.2
06/10:30pm 4.7 2.6 1.7 81 1.2 SSE 2 7 1 4 1016.9 1016.9 0.2
06/10:00pm 5.1 3.3 1.4 77 1.5 CALM 0 4 0 2 1016.7 1016.7 0.2
06/09:30pm 6.0 3.5 1.7 74 1.7 SSW 4 9 2 5 1016.7 1016.7 0.2
06/09:00pm 6.1 3.5 1.2 71 1.9 NNE 4 7 2 4 1016.5 1016.5 0.2
06/08:30pm 7.0 3.9 1.5 68 2.2 N 7 9 4 5 1016.5 1016.5 0.2
06/08:00pm 8.6 5.2 1.7 62 2.8 WNW 9 13 5 7 1016.4 1016.4 0.2
06/07:30pm 8.3 4.0 1.2 61 2.9 W 13 19 7 10 1016.4 1016.4 0.2
06/07:00pm 9.3 5.1 1.7 59 3.2 WSW 13 17 7 9 1016.4 1016.4 0.2
06/06:30pm 10.9 6.0 1.7 53 3.9 WSW 17 22 9 12 1016.2 1016.2 0.2
06/06:00pm 11.0 6.8 1.5 52 4.0 WSW 13 17 7 9 1015.8 1015.8 0.2
06/05:30pm 11.2 7.1 2.0 53 3.9 WSW 13 19 7 10 1015.2 1015.2 0.2
06/05:00pm 12.7 7.3 2.3 49 4.5 W 20 28 11 15 1014.7 1014.7 0.2
06/04:30pm 14.4 9.7 2.9 46 5.1 WSW 17 24 9 13 1014.4 1014.4 0.2
06/04:00pm 15.4 10.1 2.9 43 5.6 W 20 28 11 15 1014.0 1014.0 0.2
06/03:30pm 16.3 11.1 3.4 42 5.9 W 20 28 11 15 1013.8 1013.8 0.2
06/03:00pm 16.5 11.5 3.6 42 6.0 WNW 19 24 10 13 1013.5 1013.5 0.2
06/02:30pm 16.4 12.3 2.4 39 6.3 NW 13 28 7 15 1013.3 1013.3 0.2
06/02:00pm 15.2 12.0 1.0 38 6.1 SE 7 11 4 6 1013.5 1013.5 0.2
06/01:30pm 14.9 11.8 1.4 40 5.9 SE 7 13 4 7 1013.5 1013.5 0.2
06/01:00pm 14.8 11.4 2.0 42 5.6 E 9 13 5 7 1013.8 1013.8 0.2
06/12:30pm 13.7 10.7 2.3 46 5.0 SE 7 11 4 6 1014.3 1014.3 0.2
06/12:00pm 12.5 10.1 2.4 50 4.4 SE 4 9 2 5 1014.7 1014.7 0.2
06/11:30am 11.1 9.4 4.1 62 3.1 W 2 11 1 6 1015.4 1015.4 0.2
06/11:00am 9.0 7.5 5.0 76 1.8 W 2 6 1 3 1015.8 1015.8 0.0
06/10:30am 6.4 5.0 5.4 93 0.4 NNW 2 7 1 4 1016.2 1016.2 0.0
06/10:00am 6.4 4.9 3.2 80 1.3 CALM 0 0 0 0 1016.5 1016.5 0.0
06/09:30am 4.8 2.4 2.2 83 1.0 NNW 4 7 2 4 1016.6 1016.6 0.0
06/09:00am 2.7 1.0 1.7 93 0.4 CALM 0 0 0 0 1016.8 1016.8 0.2
06/08:30am 0.6 -1.3 0.3 98 0.1 CALM 0 0 0 0 1016.8 1016.8 0.2
06/08:24am 0.3 -2.1 0.0 98 0.1 SSW 2 6 1 3 1016.8 1016.8 0.2
06/08:02am -0.7 -4.0 -1.0 98 0.1 SSW 6 7 3 4 1016.7 1016.7 0.2
06/08:00am -0.7 -4.0 -1.0 98 0.1 SSW 6 7 3 4 1016.7 1016.7 0.2
06/07:30am -1.7 -5.1 -2.0 98 0.0 ENE 6 7 3 4 1016.6 1016.6 0.2
06/07:04am -1.8 -4.1 -2.1 98 0.0 CALM 0 7 0 4 1016.6 1016.6 0.2
06/07:00am -2.0 -4.3 -2.3 98 0.0 CALM 0 0 0 0 1016.6 1016.6 0.2
06/06:30am -1.9 -4.2 -2.2 98 0.0 CALM 0 0 0 0 1016.5 1016.5 0.2
06/06:25am -2.2 -4.5 -2.5 98 0.0 CALM 0 0 0 0 1016.5 1016.5 0.2
06/06:13am -2.2 -4.5 -2.5 98 0.0 CALM 0 0 0 0 1016.5 1016.5 0.2
06/06:00am -2.0 -4.3 -2.3 98 0.0 CALM 0 0 0 0 1016.4 1016.4 0.2
06/05:32am -1.9 -4.2 -2.2 98 0.0 CALM 0 0 0 0 1016.4 1016.4 0.2
06/05:30am -1.9 -4.2 -2.2 98 0.0 CALM 0 0 0 0 1016.4 1016.4 0.2
06/05:29am -1.8 -4.1 -2.1 98 0.0 CALM 0 0 0 0 1016.4 1016.4 0.2
06/05:27am -1.7 -4.0 -2.0 98 0.0 CALM 0 0 0 0 1016.4 1016.4 0.2
06/05:00am -1.5 -3.7 -1.8 98 0.0 CALM 0 0 0 0 1016.4 1016.4 0.2
06/04:59am -1.4 -3.6 -1.7 98 0.0 CALM 0 0 0 0 1016.4 1016.4 0.2
06/04:43am -1.6 -4.2 -1.9 98 0.0 NNW 2 9 1 5 1016.6 1016.6 0.2
06/04:30am -1.7 -4.0 -2.0 98 0.0 CALM 0 0 0 0 1016.7 1016.7 0.2
06/04:00am -0.6 -2.7 -0.9 98 0.1 CALM 0 0 0 0 1016.7 1016.7 0.2
06/03:30am -1.2 -3.8 -1.5 98 0.0 SSW 2 6 1 3 1016.8 1016.8 0.2
06/03:17am -0.7 -4.0 -1.0 98 0.1 SW 6 9 3 5 1016.9 1016.9 0.2
06/03:03am -0.5 -2.6 -0.8 98 0.1 CALM 0 0 0 0 1017.1 1017.1 0.2
06/03:00am -0.4 -2.5 -0.7 98 0.1 CALM 0 0 0 0 1017.1 1017.1 0.2
06/02:52am -0.4 -2.5 -0.7 98 0.1 CALM 0 0 0 0 1017.0 1017.0 0.2
06/02:43am -0.5 -3.0 -0.8 98 0.1 SW 2 7 1 4 1017.1 1017.1 0.2
06/02:30am 0.0 -2.4 -0.3 98 0.1 W 2 6 1 3 1017.3 1017.3 0.2
06/02:09am 0.2 -2.6 -0.1 98 0.1 SE 4 9 2 5 1017.5 1017.5 0.2
06/02:00am 0.5 -1.8 0.2 98 0.1 SSE 2 9 1 5 1017.5 1017.5 0.2
06/01:56am 0.6 -1.3 0.3 98 0.1 CALM 0 0 0 0 1017.6 1017.6 0.2
06/01:46am 0.2 -1.8 -0.1 98 0.1 CALM 0 0 0 0 1017.7 1017.7 0.2
06/01:30am 0.7 -1.6 0.4 98 0.1 NE 2 7 1 4 1017.8 1017.8 0.2
06/01:05am 0.8 -2.2 0.5 98 0.1 NNE 6 7 3 4 1017.9 1017.9 0.2
06/01:02am 0.9 -2.1 0.6 98 0.1 N 6 7 3 4 1018.0 1018.0 0.2
06/01:00am 1.3 -1.7 1.0 98 0.1 N 6 7 3 4 1018.0 1018.0 0.2
06/12:30am 1.4 -0.4 1.1 98 0.1 CALM 0 0 0 0 1018.1 1018.1 0.2
 
Date/Time
EST
Tmp

°C
App
Tmp
°C
Dew
Point
°C
Rel
Hum
%
Delta-T

°C
Wind Press
QNH
hPa
Press
MSL
hPa
Rain
since
9 am
mm
Dir
 
Spd
km/h
Gust
km/h
Spd
kts
Gust
kts
05/11:58pm 1.9 0.2 1.6 98 0.1 CALM 0 0 0 0 1018.4 1018.4 0.2
05/11:57pm 1.9 0.2 1.6 98 0.1 CALM 0 0 0 0 1018.4 1018.4 0.2
05/11:55pm 2.0 0.3 1.7 98 0.1 CALM 0 0 0 0 1018.4 1018.4 0.2
05/11:46pm 2.4 0.7 2.1 98 0.1 CALM 0 0 0 0 1018.4 1018.4 0.2
05/11:37pm 2.6 1.0 2.3 98 0.1 CALM 0 0 0 0 1018.4 1018.4 0.2
05/11:36pm 2.6 1.0 2.3 98 0.1 CALM 0 0 0 0 1018.4 1018.4 0.2
05/11:30pm 2.6 0.6 2.3 98 0.1 N 2 6 1 3 1018.4 1018.4 0.2
05/11:12pm 3.0 1.1 2.7 98 0.1 WNW 2 7 1 4 1018.4 1018.4 0.2
05/11:11pm 3.0 1.1 2.7 98 0.1 W 2 7 1 4 1018.5 1018.5 0.2
05/11:07pm 3.2 1.7 2.9 98 0.1 CALM 0 0 0 0 1018.5 1018.5 0.2
05/11:03pm 3.3 1.8 3.0 98 0.1 CALM 0 4 0 2 1018.5 1018.5 0.2
05/11:00pm 3.2 1.3 2.9 98 0.1 WSW 2 7 1 4 1018.5 1018.5 0.2
05/10:50pm 3.4 1.5 3.1 98 0.1 SW 2 7 1 4 1018.5 1018.5 0.2
05/10:46pm 3.2 1.7 2.9 98 0.1 CALM 0 6 0 3 1018.4 1018.4 0.2
05/10:45pm 3.2 1.7 2.9 98 0.1 CALM 0 0 0 0 1018.4 1018.4 0.2
05/10:39pm 3.4 1.9 3.1 98 0.1 CALM 0 0 0 0 1018.5 1018.5 0.2
05/10:37pm 3.4 1.9 3.1 98 0.1 CALM 0 0 0 0 1018.5 1018.5 0.2
05/10:30pm 4.0 2.6 3.7 98 0.1 CALM 0 7 0 4 1018.4 1018.4 0.2
05/10:08pm 3.8 2.4 3.5 98 0.1 CALM 0 0 0 0 1018.4 1018.4 0.2
05/10:00pm 3.9 2.1 3.5 97 0.2 SW 2 6 1 3 1018.4 1018.4 0.2
05/09:55pm 3.8 1.6 3.1 95 0.3 SW 4 7 2 4 1018.5 1018.5 0.2
05/09:30pm 4.9 3.7 4.5 97 0.2 CALM 0 0 0 0 1018.3 1018.3 0.2
05/09:26pm 5.3 4.2 5.0 98 0.1 CALM 0 0 0 0 1018.3 1018.3 0.2
05/09:04pm 5.0 3.8 4.7 98 0.1 CALM 0 0 0 0 1018.3 1018.3 0.2
05/09:00pm 5.5 4.4 5.2 98 0.1 CALM 0 0 0 0 1018.3 1018.3 0.2
05/08:30pm 6.1 4.0 5.7 97 0.2 N 6 6 3 3 1018.3 1018.3 0.2
05/08:00pm 6.3 4.9 5.6 95 0.3 N 2 9 1 5 1018.4 1018.4 0.2
05/07:30pm 7.2 6.2 5.7 90 0.7 CALM 0 0 0 0 1018.6 1018.6 0.2
05/07:00pm 7.7 5.8 5.0 83 1.2 WSW 4 7 2 4 1018.5 1018.5 0.2
05/06:30pm 8.6 6.0 6.1 84 1.1 W 9 11 5 6 1018.3 1018.3 0.2
05/06:00pm 8.8 6.5 5.0 77 1.7 SW 6 7 3 4 1018.0 1018.0 0.2
05/05:30pm 9.7 7.6 5.9 77 1.7 S 6 7 3 4 1017.8 1017.8 0.2
05/05:00pm 11.7 9.1 6.0 68 2.7 SSW 9 11 5 6 1017.9 1017.9 0.2
05/04:30pm 14.2 13.1 5.0 54 4.3 CALM 0 0 0 0 1017.9 1017.9 0.2
05/04:00pm 14.9 13.0 4.9 51 4.7 ESE 4 7 2 4 1017.9 1017.9 0.2
05/03:30pm 14.8 12.2 4.2 49 4.9 ESE 7 9 4 5 1017.9 1017.9 0.2
05/03:00pm 15.7 13.5 3.2 43 5.7 ENE 4 7 2 4 1018.0 1018.0 0.2
05/02:30pm 15.1 13.1 4.2 48 5.0 ESE 4 7 2 4 1018.2 1018.2 0.0
05/02:00pm 14.9 13.3 4.6 50 4.8 NE 2 9 1 5 1018.2 1018.2 0.0
05/01:30pm 14.0 11.9 4.0 51 4.6 NNW 4 11 2 6 1018.6 1018.6 0.0
05/01:00pm 13.6 10.9 3.7 51 4.5 N 7 11 4 6 1018.9 1018.9 0.0
05/12:30pm 12.4 10.0 4.4 58 3.6 N 6 11 3 6 1019.5 1019.5 0.0
05/12:00pm 11.2 8.7 3.7 60 3.3 N 6 9 3 5 1020.3 1020.3 0.0
05/11:30am 9.6 7.0 3.4 65 2.7 S 6 9 3 5 1021.0 1021.0 0.0
05/11:00am 8.8 6.3 4.0 72 2.1 ENE 6 9 3 5 1021.5 1021.5 0.0
05/10:30am 7.9 5.9 4.5 79 1.5 NE 4 7 2 4 1022.1 1022.1 0.0
05/10:00am 6.2 3.6 3.4 82 1.2 NNW 6 7 3 4 1022.5 1022.5 0.0
05/09:30am 4.6 3.1 2.9 89 0.7 CALM 0 0 0 0 1022.6 1022.6 0.0
05/09:00am 3.3 1.3 2.4 94 0.4 SSE 2 6 1 3 1022.7 1022.7 0.0
05/08:30am 1.7 -0.1 1.3 97 0.2 CALM 0 0 0 0 1022.5 1022.5 0.0
05/08:21am 1.5 -0.3 1.2 98 0.1 CALM 0 0 0 0 1022.5 1022.5 0.0
05/08:00am 0.3 -1.7 0.0 98 0.1 CALM 0 0 0 0 1022.6 1022.6 0.0
05/07:52am -0.1 -2.1 -0.4 98 0.1 CALM 0 0 0 0 1022.6 1022.6 0.0
05/07:36am -0.1 -2.1 -0.4 98 0.1 CALM 0 0 0 0 1022.5 1022.5 0.0
05/07:30am -0.4 -2.5 -0.7 98 0.1 CALM 0 0 0 0 1022.4 1022.4 0.0
05/07:23am -0.7 -2.8 -1.0 98 0.1 CALM 0 0 0 0 1022.3 1022.3 0.0
05/07:14am -1.0 -3.2 -1.3 98 0.1 CALM 0 0 0 0 1022.2 1022.2 0.0
05/07:09am -1.0 -3.2 -1.3 98 0.1 CALM 0 0 0 0 1022.1 1022.1 0.0
05/07:05am -1.2 -3.4 -1.5 98 0.0 CALM 0 0 0 0 1022.1 1022.1 0.0
05/07:00am -0.9 -3.1 -1.2 98 0.1 CALM 0 0 0 0 1022.1 1022.1 0.0
05/06:34am -0.4 -2.5 -0.7 98 0.1 CALM 0 0 0 0 1021.9 1021.9 0.0
05/06:30am -0.4 -2.5 -0.7 98 0.1 CALM 0 0 0 0 1021.9 1021.9 0.0
05/06:00am -0.5 -2.6 -0.8 98 0.1 CALM 0 0 0 0 1021.7 1021.7 0.0
05/05:57am -0.5 -2.6 -0.8 98 0.1 CALM 0 0 0 0 1021.8 1021.8 0.0
05/05:52am -0.5 -2.6 -0.8 98 0.1 CALM 0 0 0 0 1021.8 1021.8 0.0
05/05:38am -0.4 -2.5 -0.7 98 0.1 CALM 0 0 0 0 1021.6 1021.6 0.0
05/05:30am -0.4 -2.5 -0.7 98 0.1 CALM 0 0 0 0 1021.7 1021.7 0.0
05/05:28am -0.3 -2.4 -0.6 98 0.1 CALM 0 0 0 0 1021.7 1021.7 0.0
05/05:22am -0.3 -2.4 -0.6 98 0.1 CALM 0 0 0 0 1021.7 1021.7 0.0
05/05:00am -0.4 -2.9 -0.7 98 0.1 N 2 6 1 3 1021.5 1021.5 0.0
05/04:48am -0.2 -3.6 -0.5 98 0.1 N 7 9 4 5 1021.7 1021.7 0.0
05/04:36am 0.2 -1.8 -0.1 98 0.1 CALM 0 0 0 0 1021.8 1021.8 0.0
05/04:30am 0.1 -1.9 -0.2 98 0.1 CALM 0 0 0 0 1021.7 1021.7 0.0
05/04:21am 0.2 -1.8 -0.1 98 0.1 CALM 0 0 0 0 1021.7 1021.7 0.0
05/04:13am 0.3 -1.7 0.0 98 0.1 CALM 0 0 0 0 1021.7 1021.7 0.0
05/04:06am 0.3 -1.7 0.0 98 0.1 CALM 0 0 0 0 1021.6 1021.6 0.0
05/04:00am -0.1 -2.1 -0.4 98 0.1 CALM 0 0 0 0 1021.6 1021.6 0.0
05/03:30am 0.6 -1.3 0.3 98 0.1 CALM 0 0 0 0 1021.8 1021.8 0.0
05/03:19am 0.5 -1.5 0.2 98 0.1 CALM 0 0 0 0 1021.9 1021.9 0.0
05/03:07am 0.2 -1.8 -0.1 98 0.1 CALM 0 0 0 0 1021.9 1021.9 0.0
05/03:00am 0.4 -1.6 0.1 98 0.1 CALM 0 0 0 0 1021.9 1021.9 0.0
05/02:59am 0.4 -1.6 0.1 98 0.1 CALM 0 0 0 0 1021.9 1021.9 0.0
05/02:51am 0.1 -1.9 -0.2 98 0.1 CALM 0 0 0 0 1021.8 1021.8 0.0
05/02:30am 0.9 -1.0 0.6 98 0.1 CALM 0 0 0 0 1022.0 1022.0 0.0
05/02:08am 1.0 -0.9 0.7 98 0.1 CALM 0 0 0 0 1022.0 1022.0 0.0
05/02:00am 0.8 -1.1 0.5 98 0.1 CALM 0 0 0 0 1022.1 1022.1 0.0
05/01:46am 1.0 -0.9 0.7 98 0.1 CALM 0 0 0 0 1022.2 1022.2 0.0
05/01:30am 1.3 -0.5 1.0 98 0.1 CALM 0 0 0 0 1022.2 1022.2 0.0
05/01:19am 1.9 0.2 1.6 98 0.1 CALM 0 0 0 0 1022.2 1022.2 0.0
05/01:13am 1.7 -0.1 1.4 98 0.1 CALM 0 0 0 0 1022.1 1022.1 0.0
05/01:02am 2.2 0.5 1.9 98 0.1 CALM 0 0 0 0 1022.1 - -
05/01:01am 3.0 - 2.7 98 0.1 - - - - - 1022.1 1022.1 0.0
05/01:00am 3.0 1.4 2.7 98 0.1 CALM 0 0 0 0 1022.1 1022.1 -
05/12:55am 2.6 1.0 2.3 98 0.1 CALM 0 0 0 0 1022.1 - -
05/12:30am 2.5 0.9 2.2 98 0.1 CALM 0 0 0 0 1022.1 1022.1 0.0
05/12:19am 2.6 1.0 2.3 98 0.1 CALM 0 0 0 0 1022.1 1022.1 0.0
05/12:00am 2.9 1.3 2.6 98 0.1 CALM 0 0 0 0 1022.2 1022.2 0.0
 
Date/Time
EST
Tmp

°C
App
Tmp
°C
Dew
Point
°C
Rel
Hum
%
Delta-T

°C
Wind Press
QNH
hPa
Press
MSL
hPa
Rain
since
9 am
mm
Dir
 
Spd
km/h
Gust
km/h
Spd
kts
Gust
kts
04/11:30pm 2.9 1.3 2.5 97 0.2 CALM 0 0 0 0 1022.1 1022.1 0.0
04/11:03pm 3.4 1.9 3.1 98 0.1 CALM 0 0 0 0 1022.3 1022.3 0.0
04/11:00pm 3.4 1.9 3.1 98 0.1 CALM 0 0 0 0 1022.3 1022.3 0.0
04/10:53pm 3.2 1.7 2.8 97 0.2 CALM 0 0 0 0 1022.3 1022.3 0.0
04/10:30pm 3.3 1.8 2.9 97 0.2 CALM 0 0 0 0 1022.2 1022.2 0.0
04/10:00pm 3.9 2.5 3.3 96 0.2 CALM 0 0 0 0 1022.2 1022.2 0.0
04/09:30pm 3.9 2.4 2.9 93 0.4 CALM 0 0 0 0 1022.4 1022.4 0.0
04/09:00pm 5.1 3.9 4.4 95 0.3 CALM 0 0 0 0 1022.5 1022.5 0.0
04/08:30pm 4.6 2.7 2.9 89 0.7 WNW 2 9 1 5 1022.4 1022.4 0.0
04/08:00pm 5.8 3.3 3.8 87 0.8 S 6 9 3 5 1022.3 1022.3 0.0
04/07:30pm 5.7 3.0 3.9 88 0.8 SE 7 17 4 9 1022.1 1022.1 0.0
04/07:00pm 7.3 4.7 4.3 81 1.3 W 7 7 4 4 1021.7 1021.7 0.0
04/06:30pm 7.5 5.1 4.5 81 1.3 W 6 9 3 5 1021.4 1021.4 0.0
04/06:00pm 7.9 5.6 3.0 71 2.1 W 4 9 2 5 1021.2 1021.2 0.0
04/05:30pm 9.8 8.3 3.1 63 2.9 CALM 0 0 0 0 1021.0 1021.0 0.0
04/05:00pm 11.1 9.6 2.9 57 3.5 CALM 0 0 0 0 1020.7 1020.7 0.0
04/04:30pm 14.4 12.7 2.0 43 5.4 CALM 0 0 0 0 1020.5 1020.5 0.0
04/04:00pm 14.4 11.4 1.7 42 5.5 SSW 7 9 4 5 1020.6 1020.6 0.0
04/03:30pm 14.6 11.3 0.1 37 6.1 SSE 7 11 4 6 1020.2 1020.2 0.0
04/03:00pm 14.5 11.0 1.1 40 5.7 S 9 13 5 7 1020.2 1020.2 0.0
04/02:30pm 14.5 11.1 3.9 49 4.8 S 11 15 6 8 1020.0 1020.0 0.0
04/02:00pm 14.2 11.3 4.5 52 4.5 S 9 13 5 7 1019.7 1019.7 0.0
04/01:30pm 13.9 11.2 3.9 51 4.6 SSW 7 11 4 6 1019.8 1019.8 0.0
04/01:00pm 12.9 10.0 4.6 57 3.8 SSE 9 13 5 7 1020.1 1020.1 0.0
04/12:30pm 11.6 9.3 5.0 64 3.0 SSE 6 9 3 5 1020.6 1020.6 0.0
04/12:00pm 11.1 9.9 4.8 65 2.8 CALM 0 2 0 1 1021.1 1021.1 0.0
04/11:30am 8.7 6.3 4.5 75 1.9 SE 6 7 3 4 1021.7 1021.7 0.0
04/11:00am 6.9 4.7 5.2 89 0.7 ESE 6 9 3 5 1022.3 1022.3 0.0
04/10:30am 5.9 4.1 5.6 98 0.1 SE 4 9 2 5 1022.9 1022.9 0.0
04/10:21am 5.6 2.8 5.3 98 0.1 SE 9 11 5 6 1022.9 1022.9 0.0
04/10:14am 5.5 3.7 5.2 98 0.1 SE 4 11 2 6 1023.1 1023.2 0.0
04/10:00am 5.4 3.5 5.1 98 0.1 ESE 4 9 2 5 1023.1 1023.2 0.0
04/09:57am 4.8 2.8 4.5 98 0.1 ESE 4 7 2 4 1023.2 1023.3 0.0
04/09:48am 4.7 3.5 4.4 98 0.1 CALM 0 0 0 0 1023.2 1023.3 0.0
04/09:30am 3.4 1.2 3.1 98 0.1 WNW 4 7 2 4 1023.4 1023.5 0.0
04/09:25am 3.1 0.4 2.8 98 0.1 WNW 6 7 3 4 1023.4 1023.5 0.0
04/09:00am 2.3 -0.5 2.0 98 0.1 N 6 9 3 5 1023.1 1023.2 0.0
04/08:30am 1.2 -0.6 0.9 98 0.1 CALM 0 0 0 0 1023.3 1023.4 0.0
04/08:00am 0.6 -2.7 0.3 98 0.1 SW 7 11 4 6 1023.3 1023.4 0.0
04/07:30am 0.3 -2.4 0.0 98 0.1 SSW 4 7 2 4 1022.9 1022.9 0.0
04/07:00am 0.0 -2.0 -0.3 98 0.1 CALM 0 0 0 0 1022.9 1022.9 0.0
04/06:30am 0.3 -1.7 0.0 98 0.1 CALM 0 0 0 0 1022.7 1022.7 0.0
04/06:00am 0.5 -1.5 0.2 98 0.1 CALM 0 0 0 0 1022.7 1022.7 0.0
04/05:30am 0.4 -1.6 0.1 98 0.1 CALM 0 2 0 1 1022.7 1022.7 0.0
04/05:00am 0.5 -2.8 0.2 98 0.1 SSW 7 11 4 6 1022.6 1022.6 0.0
04/04:30am 0.7 -1.2 0.4 98 0.1 CALM 0 0 0 0 1022.8 1022.8 0.0
04/04:00am 0.7 -1.2 0.4 98 0.1 CALM 0 0 0 0 1023.1 1023.2 0.0
04/03:30am 0.6 -1.3 0.3 98 0.1 CALM 0 0 0 0 1023.4 1023.5 0.0
04/03:00am 1.1 -0.8 0.8 98 0.1 CALM 0 0 0 0 1023.8 1023.9 0.0
04/02:46am 1.5 -0.3 1.2 98 0.1 CALM 0 0 0 0 1023.9 1024.0 0.0
04/02:40am 1.9 0.2 1.6 98 0.1 CALM 0 0 0 0 1023.7 1023.8 0.0
04/02:30am 1.7 -0.1 1.4 98 0.1 CALM 0 0 0 0 1023.9 1024.0 0.0
04/02:00am 2.4 0.7 2.1 98 0.1 CALM 0 0 0 0 1024.3 1024.4 0.0
04/01:48am 2.5 0.9 2.2 98 0.1 CALM 0 0 0 0 1024.1 1024.2 0.0
04/01:43am 2.3 0.6 2.0 98 0.1 CALM 0 0 0 0 1024.2 1024.3 0.0
04/01:30am 2.2 0.5 1.9 98 0.1 CALM 0 0 0 0 1024.2 1024.3 0.0
04/01:23am 2.0 0.3 1.7 98 0.1 CALM 0 0 0 0 1024.3 1024.4 0.0
04/01:00am 2.2 0.5 1.9 98 0.1 CALM 0 0 0 0 1024.3 1024.4 0.0
04/12:30am 2.8 1.2 2.5 98 0.1 CALM 0 0 0 0 1024.9 1025.0 0.0
04/12:17am 2.7 1.1 2.4 98 0.1 CALM 0 0 0 0 1024.9 1025.0 0.0

Latest Capital City Observations: Canberra | Sydney | Melbourne | Brisbane | Adelaide | Perth | Hobart | Darwin

Other Formats:

Comma delimited format used in spreadsheet applications
http://www.bom.gov.au/fwo/IDN60901/IDN60901.95753.axf

JavaScript Object Notation format (JSON) in row-major order
http://www.bom.gov.au/fwo/IDN60901/IDN60901.95753.json